Terminal Aerodrome Forecast
Issued by NWS Grand Forks, ND

Home | Current Version | Previous Version | Graphics & Text | Print | Product List | Glossary On
Versions: 1 2 3 4 5 6 7 8 9 10 11 12 13 14 15 16 17 18 19 20 21
000
FTUS43 KFGF 311900 AAA
TAFFAR
TAF AMD
KFAR 311959Z 3120/0118 19014KT P6SM FEW020 BKN030
      TEMPO 3120/3122 BKN025
     FM312200 26007KT P6SM BKN035
     FM010000 29009KT P6SM BKN050
     FM010200 30007KT P6SM BKN200=

USA.gov is the U.S. government's official web portal to all federal, state and local government web resources and services.